createdAt,value
2023-05-20T00:00:39.977Z,10.60
2023-05-20T00:05:42.348Z,10.50
2023-05-20T00:10:44.385Z,10.30
2023-05-20T00:15:48.606Z,10.20
2023-05-20T00:20:50.713Z,10.00
2023-05-20T00:25:52.678Z,9.90
2023-05-20T00:30:56.284Z,9.90
2023-05-20T00:35:58.742Z,9.90
2023-05-20T00:41:00.902Z,9.80
2023-05-20T00:46:04.358Z,9.60
2023-05-20T00:51:07.907Z,9.50
2023-05-20T00:56:10.504Z,9.30
2023-05-20T01:01:13.717Z,9.20
2023-05-20T01:06:15.837Z,9.10
2023-05-20T01:11:27.457Z,9.10
2023-05-20T01:16:34.246Z,9.20
2023-05-20T01:21:37.864Z,9.20
2023-05-20T01:26:41.388Z,9.10
2023-05-20T01:31:43.569Z,9.10
2023-05-20T01:36:47.654Z,9.20
2023-05-20T01:41:52.180Z,9.40
2023-05-20T01:46:55.301Z,9.50
2023-05-20T01:51:57.606Z,9.40
2023-05-20T01:57:01.640Z,9.40
2023-05-20T02:02:03.787Z,9.40
2023-05-20T02:07:05.778Z,9.40
2023-05-20T02:12:13.001Z,9.40
2023-05-20T02:17:16.765Z,9.50
2023-05-20T02:22:19.069Z,9.50
2023-05-20T02:27:22.444Z,9.40
2023-05-20T02:32:28.155Z,9.40
2023-05-20T02:37:30.443Z,9.40
2023-05-20T02:42:33.863Z,9.40
2023-05-20T02:47:36.088Z,9.50
2023-05-20T02:52:38.206Z,9.50
2023-05-20T02:57:41.612Z,9.50
2023-05-20T03:02:43.707Z,9.50
2023-05-20T03:07:46.553Z,9.40
2023-05-20T03:12:49.728Z,9.20
2023-05-20T03:17:51.526Z,9.20
2023-05-20T03:22:53.761Z,9.10
2023-05-20T03:27:58.476Z,9.00
2023-05-20T03:33:03.057Z,9.10
2023-05-20T03:38:05.356Z,9.10
2023-05-20T03:43:08.760Z,9.10
2023-05-20T03:48:11.023Z,9.00
2023-05-20T03:53:13.180Z,9.00
2023-05-20T03:58:17.622Z,9.00
2023-05-20T04:03:19.819Z,9.00
2023-05-20T04:08:22.206Z,9.00
2023-05-20T04:13:26.657Z,9.00
2023-05-20T04:18:30.067Z,9.00
2023-05-20T04:23:32.005Z,9.10
2023-05-20T04:28:37.904Z,9.00
2023-05-20T04:33:40.297Z,9.00
2023-05-20T04:38:42.475Z,9.10
2023-05-20T04:43:46.165Z,9.10
2023-05-20T04:48:48.605Z,9.10
2023-05-20T04:53:51.004Z,9.20
2023-05-20T04:58:54.533Z,9.30
2023-05-20T05:03:56.389Z,9.50
2023-05-20T05:08:58.100Z,9.70
2023-05-20T05:14:01.816Z,10.20
2023-05-20T05:19:03.919Z,10.70
2023-05-20T05:24:05.786Z,11.10
2023-05-20T05:29:11.604Z,11.70
2023-05-20T05:34:13.837Z,12.20
2023-05-20T05:39:16.222Z,12.40
2023-05-20T05:44:20.024Z,12.50
2023-05-20T05:49:21.850Z,12.40
2023-05-20T05:54:23.857Z,12.30
2023-05-20T05:59:27.322Z,12.40
2023-05-20T06:04:29.620Z,12.60
2023-05-20T06:09:32.028Z,13.20
2023-05-20T06:14:36.874Z,13.70
2023-05-20T06:19:39.190Z,14.20
2023-05-20T06:24:41.454Z,14.50
2023-05-20T06:29:44.972Z,14.90
2023-05-20T06:34:47.080Z,15.30
2023-05-20T06:39:53.978Z,15.70
2023-05-20T06:44:57.351Z,15.90
2023-05-20T06:49:59.582Z,16.10
2023-05-20T06:55:01.684Z,16.00
2023-05-20T07:00:06.004Z,15.90
2023-05-20T07:05:08.708Z,16.40
2023-05-20T07:10:11.514Z,17.30
2023-05-20T07:15:15.209Z,16.60
2023-05-20T07:20:17.284Z,17.20
2023-05-20T07:25:19.821Z,17.20
2023-05-20T07:30:23.670Z,17.80
2023-05-20T07:35:25.948Z,18.30
2023-05-20T07:40:27.848Z,18.10
2023-05-20T07:45:31.127Z,17.90
2023-05-20T07:50:33.323Z,17.60
2023-05-20T07:55:36.440Z,19.20
2023-05-20T08:00:40.429Z,20.00
2023-05-20T08:05:43.391Z,18.10
2023-05-20T08:10:45.699Z,18.50
2023-05-20T08:15:49.720Z,19.20
2023-05-20T08:20:51.813Z,19.70
2023-05-20T08:25:57.027Z,20.40
2023-05-20T08:31:03.116Z,20.30
2023-05-20T08:36:05.361Z,19.90
2023-05-20T08:41:07.693Z,19.90
2023-05-20T08:46:12.003Z,19.90
2023-05-20T08:51:17.444Z,19.60
2023-05-20T08:56:20.301Z,19.70
2023-05-20T09:01:26.225Z,19.60
2023-05-20T09:06:28.391Z,19.90
2023-05-20T09:11:32.049Z,20.10
2023-05-20T09:16:35.813Z,19.70
2023-05-20T09:21:39.142Z,20.30
2023-05-20T09:26:41.701Z,20.90
2023-05-20T09:31:45.401Z,19.90
2023-05-20T09:36:50.836Z,19.50
2023-05-20T09:42:22.646Z,19.30
2023-05-20T09:47:30.695Z,19.80
2023-05-20T09:52:39.005Z,20.40
2023-05-20T09:57:50.462Z,20.80
2023-05-20T10:02:54.719Z,21.20
2023-05-20T10:08:19.679Z,22.20
2023-05-20T10:13:38.202Z,22.50
2023-05-20T10:18:58.291Z,22.30
2023-05-20T10:24:08.555Z,21.40
2023-05-20T10:29:17.797Z,21.60
2023-05-20T10:34:22.549Z,21.90
2023-05-20T10:39:28.732Z,21.90
2023-05-20T10:44:41.499Z,21.40
2023-05-20T10:49:46.680Z,20.50
2023-05-20T10:54:50.984Z,20.50
2023-05-20T10:59:54.739Z,21.00
2023-05-20T11:04:59.462Z,21.00
2023-05-20T11:10:01.913Z,21.60
2023-05-20T11:15:04.151Z,23.30
2023-05-20T11:20:10.487Z,23.10
2023-05-20T11:25:12.796Z,23.60
2023-05-20T11:30:17.272Z,23.70
2023-05-20T11:35:26.123Z,23.70
2023-05-20T11:40:35.759Z,24.60
2023-05-20T11:45:46.283Z,24.30
2023-05-20T11:50:50.407Z,23.40
2023-05-20T11:55:54.406Z,25.00
2023-05-20T12:01:02.333Z,26.60
2023-05-20T12:06:15.177Z,27.90
2023-05-20T12:11:17.119Z,27.40
2023-05-20T12:16:19.002Z,26.70
2023-05-20T12:21:22.739Z,28.30
2023-05-20T12:26:26.050Z,29.30
2023-05-20T12:31:28.590Z,29.00
2023-05-20T12:36:33.930Z,28.90
2023-05-20T12:41:35.899Z,30.20
2023-05-20T12:46:39.047Z,29.00
2023-05-20T12:51:42.638Z,29.70
2023-05-20T12:56:47.569Z,29.70
2023-05-20T13:01:50.254Z,30.60
2023-05-20T13:06:53.998Z,29.00
2023-05-20T13:11:56.333Z,27.50
2023-05-20T13:16:58.753Z,27.00
2023-05-20T13:22:02.435Z,27.00
2023-05-20T13:27:04.850Z,28.70
2023-05-20T13:32:07.910Z,29.60
2023-05-20T13:37:11.704Z,29.10
2023-05-20T13:42:13.935Z,30.50
2023-05-20T13:47:16.124Z,29.90
2023-05-20T13:52:19.850Z,27.90
2023-05-20T13:57:22.242Z,28.40
2023-05-20T14:02:24.278Z,28.10
2023-05-20T14:07:27.951Z,29.30
2023-05-20T14:12:30.047Z,27.60
2023-05-20T14:17:32.294Z,27.20
2023-05-20T14:22:35.633Z,27.70
2023-05-20T14:27:37.647Z,27.50
2023-05-20T14:32:40.226Z,27.20
2023-05-20T14:37:43.740Z,25.90
2023-05-20T14:42:45.537Z,25.10
2023-05-20T14:47:47.747Z,24.40
2023-05-20T14:52:51.311Z,23.90
2023-05-20T14:57:53.797Z,23.90
2023-05-20T15:02:56.075Z,23.90
2023-05-20T15:07:59.552Z,24.00
2023-05-20T15:13:01.664Z,24.00
2023-05-20T15:18:04.396Z,23.80
2023-05-20T15:23:08.123Z,23.70
2023-05-20T15:28:09.943Z,23.50
2023-05-20T15:33:12.282Z,23.40
2023-05-20T15:38:16.460Z,23.10
2023-05-20T15:43:18.357Z,23.10
2023-05-20T15:48:20.407Z,23.10
2023-05-20T15:53:24.174Z,23.00
2023-05-20T15:58:26.182Z,23.20
2023-05-20T16:03:29.210Z,23.20
2023-05-20T16:08:34.257Z,22.90
2023-05-20T16:13:36.646Z,22.40
2023-05-20T16:18:39.278Z,22.00
2023-05-20T16:23:42.650Z,21.40
2023-05-20T16:28:44.833Z,20.90
2023-05-20T16:33:46.949Z,20.70
2023-05-20T16:38:50.235Z,20.40
2023-05-20T16:43:52.770Z,20.10
2023-05-20T16:48:54.526Z,19.80
2023-05-20T16:53:58.055Z,19.80
2023-05-20T16:59:00.357Z,19.70
2023-05-20T17:04:02.431Z,19.60
2023-05-20T17:09:07.120Z,19.90
2023-05-20T17:14:09.477Z,20.10
2023-05-20T17:19:11.850Z,20.20
2023-05-20T17:24:15.580Z,20.10
2023-05-20T17:29:18.221Z,19.80
2023-05-20T17:34:20.880Z,19.60
2023-05-20T17:39:25.172Z,19.30
2023-05-20T17:44:27.447Z,19.20
2023-05-20T17:49:30.351Z,19.00
2023-05-20T17:54:35.268Z,18.90
2023-05-20T17:59:38.853Z,18.70
2023-05-20T18:04:42.216Z,18.60
2023-05-20T18:09:46.840Z,18.50
2023-05-20T18:14:49.661Z,18.40
2023-05-20T18:19:52.400Z,18.30
2023-05-20T18:24:56.866Z,18.20
2023-05-20T18:29:59.678Z,18.00
2023-05-20T18:35:02.705Z,17.90
2023-05-20T18:40:07.706Z,17.70
2023-05-20T18:45:11.414Z,17.50
2023-05-20T18:50:14.592Z,17.20
2023-05-20T18:55:19.144Z,17.00
2023-05-20T19:00:21.922Z,17.00
2023-05-20T19:05:25.042Z,17.00
2023-05-20T19:10:29.678Z,16.80
2023-05-20T19:15:32.641Z,16.60
2023-05-20T19:20:35.876Z,16.50
2023-05-20T19:25:40.442Z,16.40
2023-05-20T19:30:43.330Z,16.30
2023-05-20T19:35:46.368Z,16.20
2023-05-20T19:40:51.057Z,16.10
2023-05-20T19:45:53.888Z,15.90
2023-05-20T19:50:56.555Z,15.80
2023-05-20T19:56:00.683Z,15.70
2023-05-20T20:01:05.278Z,15.70
2023-05-20T20:06:08.346Z,15.60
2023-05-20T20:11:13.948Z,15.40
2023-05-20T20:16:18.247Z,15.40
2023-05-20T20:21:21.582Z,15.30
2023-05-20T20:26:26.612Z,15.20
2023-05-20T20:31:29.322Z,15.20
2023-05-20T20:36:32.845Z,15.20
2023-05-20T20:41:39.444Z,15.20
2023-05-20T20:46:44.113Z,15.10
2023-05-20T20:51:47.102Z,14.90
2023-05-20T20:56:52.295Z,14.80
2023-05-20T21:01:54.561Z,14.70
2023-05-20T21:06:59.547Z,14.70
2023-05-20T21:12:06.881Z,14.60
2023-05-20T21:17:10.114Z,14.50
2023-05-20T21:22:12.391Z,14.30
2023-05-20T21:27:16.121Z,14.30
2023-05-20T21:32:18.389Z,14.30
2023-05-20T21:37:20.662Z,14.50
2023-05-20T21:42:24.068Z,14.40
2023-05-20T21:47:26.374Z,14.30
2023-05-20T21:52:28.647Z,14.30
2023-05-20T21:57:32.246Z,14.30
2023-05-20T22:02:34.926Z,14.40
2023-05-20T22:07:37.175Z,14.40
2023-05-20T22:12:40.608Z,14.20
2023-05-20T22:17:42.574Z,14.30
2023-05-20T22:22:44.428Z,14.30
2023-05-20T22:27:48.368Z,14.20
2023-05-20T22:32:50.416Z,14.00
2023-05-20T22:37:52.650Z,14.00
2023-05-20T22:42:56.831Z,14.00
2023-05-20T22:47:58.998Z,14.10
2023-05-20T22:53:00.979Z,14.10
2023-05-20T22:58:05.062Z,14.20
2023-05-20T23:03:07.770Z,14.20
2023-05-20T23:08:09.905Z,14.20
2023-05-20T23:13:14.064Z,14.20
2023-05-20T23:18:16.425Z,14.10
2023-05-20T23:23:25.022Z,14.00
2023-05-20T23:28:33.450Z,14.00
2023-05-20T23:33:35.662Z,13.90
2023-05-20T23:38:37.787Z,13.90
2023-05-20T23:43:41.526Z,13.90
2023-05-20T23:48:44.921Z,13.70
2023-05-20T23:53:46.920Z,13.60
2023-05-20T23:58:50.625Z,13.50
